Time;durP1;ratioP1;P1;durP2;ratioP2;P2;SDS_P1;SDS_P2;PMS_P1;PMS_P2;Temp;Humidity;BMP_temperature;BMP_pressure;BME280_temperature;BME280_humidity;BME280_pressure;Samples;Min_cycle;Max_cycle;Signal;HPM_P1;HPM_P2
2022/11/18 00:02:16;;;;;;;3.53;1.30;;;;;;;;;;5098486;28;20206;-61
2022/11/18 00:04:44;;;;;;;2.87;1.20;;;;;;;;;;5100838;28;20229;-60
2022/11/18 00:07:12;;;;;;;3.17;1.30;;;;;;;;;;5101438;28;20212;-60
2022/11/18 00:09:40;;;;;;;2.40;1.37;;;;;;;;;;5101292;28;20735;-61
2022/11/18 00:14:55;;;;;;;2.30;1.37;;;;;;;;;;5095941;28;20253;-62
2022/11/18 00:17:23;;;;;;;1.77;1.07;;;;;;;;;;5101198;28;20243;-61
2022/11/18 00:19:51;;;;;;;1.30;1.10;;;;;;;;;;5102338;28;20213;-60
2022/11/18 00:22:18;;;;;;;2.13;1.60;;;;;;;;;;5102334;28;20213;-61
2022/11/18 00:24:52;;;;;;;1.13;1.00;;;;;;;;;;5100965;28;20232;-60
2022/11/18 00:27:21;;;;;;;2.67;1.23;;;;;;;;;;5100914;28;20213;-62
2022/11/18 00:29:49;;;;;;;1.37;1.10;;;;;;;;;;5100843;28;20547;-61
2022/11/18 00:32:17;;;;;;;2.07;1.40;;;;;;;;;;5101116;28;20216;-61
2022/11/18 00:34:45;;;;;;;1.60;1.20;;;;;;;;;;5100496;28;20233;-61
2022/11/18 00:37:13;;;;;;;1.97;1.40;;;;;;;;;;5100855;28;20229;-62
2022/11/18 00:39:41;;;;;;;2.30;2.00;;;;;;;;;;5100576;28;20568;-61
2022/11/18 00:44:55;;;;;;;2.37;1.47;;;;;;;;;;5088340;28;20229;-61
2022/11/18 00:47:23;;;;;;;3.47;1.57;;;;;;;;;;5100795;28;20212;-62
2022/11/18 00:49:51;;;;;;;3.67;1.47;;;;;;;;;;5100528;28;20201;-61
2022/11/18 00:52:19;;;;;;;2.10;1.43;;;;;;;;;;5100658;28;20210;-60
2022/11/18 00:54:47;;;;;;;1.93;1.53;;;;;;;;;;5100556;28;20252;-62
2022/11/18 00:57:15;;;;;;;1.37;1.27;;;;;;;;;;5100048;28;20238;-60
2022/11/18 00:59:43;;;;;;;1.27;1.03;;;;;;;;;;5098918;28;20209;-60
2022/11/18 01:02:12;;;;;;;2.73;1.10;;;;;;;;;;5100506;28;20217;-61
2022/11/18 01:04:40;;;;;;;1.70;0.90;;;;;;;;;;5099808;28;20226;-61
2022/11/18 01:07:08;;;;;;;0.73;0.60;;;;;;;;;;5100330;28;20212;-61
2022/11/18 01:09:37;;;;;;;0.83;0.57;;;;;;;;;;5100309;28;20273;-60
2022/11/18 01:14:50;;;;;;;0.40;0.40;;;;;;;;;;5099792;28;20782;-60
2022/11/18 01:17:19;;;;;;;1.97;0.50;;;;;;;;;;5100037;28;20232;-62
2022/11/18 01:19:47;;;;;;;0.30;0.30;;;;;;;;;;5099540;28;20231;-61
2022/11/18 01:22:15;;;;;;;0.57;0.50;;;;;;;;;;5099980;28;20866;-62
2022/11/18 01:24:43;;;;;;;0.40;0.40;;;;;;;;;;5100221;28;20229;-61
2022/11/18 01:27:11;;;;;;;0.97;0.60;;;;;;;;;;5100098;28;20209;-62
2022/11/18 01:29:39;;;;;;;0.57;0.50;;;;;;;;;;5099968;28;20223;-62
2022/11/18 01:32:07;;;;;;;1.47;0.50;;;;;;;;;;5099657;28;20584;-62
2022/11/18 01:34:52;;;;;;;2.13;0.60;;;;;;;;;;5099510;28;20229;-61
2022/11/18 01:37:20;;;;;;;0.67;0.47;;;;;;;;;;5099477;28;20228;-62
2022/11/18 01:39:48;;;;;;;0.47;0.47;;;;;;;;;;5099762;28;20206;-62
2022/11/18 01:42:17;;;;;;;0.33;0.33;;;;;;;;;;5098787;28;20202;-61
2022/11/18 01:44:56;;;;;;;1.23;0.40;;;;;;;;;;5099589;28;20236;-61
2022/11/18 01:47:24;;;;;;;0.77;0.70;;;;;;;;;;5099712;28;20212;-61
2022/11/18 01:49:54;;;;;;;2.37;0.40;;;;;;;;;;5099351;28;20202;-61
2022/11/18 01:52:22;;;;;;;0.47;0.43;;;;;;;;;;5099587;28;20201;-61
2022/11/18 01:54:54;;;;;;;0.63;0.40;;;;;;;;;;5099529;28;20255;-61
2022/11/18 01:57:22;;;;;;;0.40;0.40;;;;;;;;;;5099046;28;20238;-61
2022/11/18 01:59:54;;;;;;;0.67;0.50;;;;;;;;;;5099711;28;20212;-62
2022/11/18 02:02:23;;;;;;;0.57;0.57;;;;;;;;;;5099611;28;20213;-62
2022/11/18 02:04:52;;;;;;;1.67;0.47;;;;;;;;;;5098928;28;20362;-61
2022/11/18 02:07:22;;;;;;;0.40;0.40;;;;;;;;;;5099084;28;20202;-61
2022/11/18 02:09:51;;;;;;;0.57;0.27;;;;;;;;;;5099151;28;20209;-60
2022/11/18 02:12:19;;;;;;;0.60;0.50;;;;;;;;;;5097106;28;20197;-60
2022/11/18 02:14:47;;;;;;;1.57;0.40;;;;;;;;;;5098609;28;20633;-60
2022/11/18 02:17:21;;;;;;;0.60;0.40;;;;;;;;;;5098715;28;20580;-60
2022/11/18 02:20:01;;;;;;;0.63;0.30;;;;;;;;;;5098824;28;20212;-61
2022/11/18 02:22:41;;;;;;;1.20;0.90;;;;;;;;;;5099079;28;20205;-61
2022/11/18 02:25:15;;;;;;;0.40;0.40;;;;;;;;;;5098075;28;20229;-61
2022/11/18 02:28:06;;;;;;;1.27;0.30;;;;;;;;;;5098701;28;20204;-61
2022/11/18 02:30:40;;;;;;;1.37;0.47;;;;;;;;;;5099052;28;20213;-61
2022/11/18 02:33:10;;;;;;;2.00;0.50;;;;;;;;;;5097463;28;20216;-61
2022/11/18 02:35:40;;;;;;;0.87;0.40;;;;;;;;;;5096168;28;20202;-61
2022/11/18 02:38:09;;;;;;;1.20;0.43;;;;;;;;;;5098461;28;20225;-61
2022/11/18 02:40:39;;;;;;;0.73;0.40;;;;;;;;;;5097772;28;20202;-61
2022/11/18 02:43:10;;;;;;;1.87;0.70;;;;;;;;;;5097606;28;20212;-62
2022/11/18 02:45:41;;;;;;;0.40;0.40;;;;;;;;;;5098196;28;20201;-62
2022/11/18 02:48:10;;;;;;;0.73;0.37;;;;;;;;;;5098007;28;20198;-62
2022/11/18 02:50:39;;;;;;;2.20;0.50;;;;;;;;;;5098026;28;20224;-61
2022/11/18 02:53:08;;;;;;;0.33;0.30;;;;;;;;;;5098250;28;20201;-62
2022/11/18 02:55:38;;;;;;;2.73;0.60;;;;;;;;;;5098188;28;20198;-62
2022/11/18 02:58:06;;;;;;;0.43;0.43;;;;;;;;;;5097772;28;20230;-62
2022/11/18 03:00:36;;;;;;;0.93;0.43;;;;;;;;;;5097254;28;20687;-61
2022/11/18 03:03:23;;;;;;;0.50;0.50;;;;;;;;;;5098075;28;20292;-61
2022/11/18 03:05:53;;;;;;;0.50;0.50;;;;;;;;;;5098243;28;20214;-61
2022/11/18 03:08:25;;;;;;;1.17;0.57;;;;;;;;;;5096008;28;20205;-60
2022/11/18 03:10:58;;;;;;;1.03;0.47;;;;;;;;;;5097808;28;20657;-60
2022/11/18 03:13:28;;;;;;;1.13;0.50;;;;;;;;;;5097965;28;20225;-60
2022/11/18 03:15:59;;;;;;;0.57;0.30;;;;;;;;;;5097822;28;20691;-62
2022/11/18 03:18:30;;;;;;;0.30;0.30;;;;;;;;;;5097650;28;20221;-60
2022/11/18 03:21:01;;;;;;;0.37;0.37;;;;;;;;;;5097980;28;20209;-61
2022/11/18 03:23:31;;;;;;;0.40;0.40;;;;;;;;;;5097159;28;20668;-61
2022/11/18 03:26:02;;;;;;;0.53;0.47;;;;;;;;;;5098014;28;20212;-60
2022/11/18 03:28:34;;;;;;;0.60;0.60;;;;;;;;;;5097604;28;20657;-61
2022/11/18 03:31:04;;;;;;;0.93;0.70;;;;;;;;;;5097315;28;20261;-61
2022/11/18 03:33:35;;;;;;;2.17;0.73;;;;;;;;;;5097138;28;20233;-61
2022/11/18 03:36:06;;;;;;;0.30;0.30;;;;;;;;;;5097846;28;20201;-61
2022/11/18 03:38:37;;;;;;;2.23;0.50;;;;;;;;;;5097663;28;20586;-61
2022/11/18 03:41:08;;;;;;;0.60;0.60;;;;;;;;;;5097703;28;20669;-61
2022/11/18 03:43:37;;;;;;;0.57;0.30;;;;;;;;;;5097784;28;20229;-61
2022/11/18 03:46:07;;;;;;;0.97;0.40;;;;;;;;;;5097856;28;20215;-61
2022/11/18 03:48:42;;;;;;;0.40;0.40;;;;;;;;;;5097399;28;20625;-61
2022/11/18 03:51:11;;;;;;;0.80;0.40;;;;;;;;;;5097913;28;20201;-61
2022/11/18 03:53:43;;;;;;;0.37;0.37;;;;;;;;;;5098048;28;20227;-61
2022/11/18 03:56:13;;;;;;;0.80;0.37;;;;;;;;;;5097632;28;20210;-61
2022/11/18 03:58:47;;;;;;;2.53;0.67;;;;;;;;;;5097390;28;20229;-61
2022/11/18 04:01:18;;;;;;;1.70;0.57;;;;;;;;;;5096415;28;20676;-61
2022/11/18 04:03:48;;;;;;;1.03;0.43;;;;;;;;;;5095645;28;20606;-59
2022/11/18 04:06:21;;;;;;;3.80;0.53;;;;;;;;;;5096522;28;20229;-61
2022/11/18 04:08:52;;;;;;;0.50;0.50;;;;;;;;;;5097435;28;20220;-60
2022/11/18 04:14:07;;;;;;;1.63;0.50;;;;;;;;;;5097033;28;20232;-60
2022/11/18 04:16:39;;;;;;;1.50;0.83;;;;;;;;;;5097106;28;20205;-61
2022/11/18 04:19:08;;;;;;;0.93;0.50;;;;;;;;;;5097485;28;20236;-61
2022/11/18 04:21:36;;;;;;;0.30;0.30;;;;;;;;;;5097489;28;20216;-61
2022/11/18 04:24:04;;;;;;;2.67;0.40;;;;;;;;;;5097184;28;20225;-61
2022/11/18 04:26:32;;;;;;;0.30;0.30;;;;;;;;;;5096753;28;20216;-61
2022/11/18 04:29:00;;;;;;;0.80;0.50;;;;;;;;;;5095956;28;20200;-61
2022/11/18 04:31:28;;;;;;;0.73;0.50;;;;;;;;;;5095410;28;20675;-61
2022/11/18 04:33:56;;;;;;;1.30;0.50;;;;;;;;;;5097942;28;20221;-61
2022/11/18 04:36:26;;;;;;;0.83;0.40;;;;;;;;;;5100057;28;20236;-61
2022/11/18 04:38:54;;;;;;;0.83;0.50;;;;;;;;;;5099835;28;20304;-61
2022/11/18 04:41:54;;;;;;;0.50;0.40;;;;;;;;;;5099712;28;20635;-61
2022/11/18 04:44:12;;;;;;;1.20;0.43;;;;;;;;;;5098816;28;20373;-61
2022/11/18 04:46:41;;;;;;;2.03;0.30;;;;;;;;;;5098342;28;20202;-61
2022/11/18 04:49:10;;;;;;;1.17;0.47;;;;;;;;;;5100173;28;20208;-60
2022/11/18 04:51:40;;;;;;;0.50;0.40;;;;;;;;;;5099934;28;20202;-62
2022/11/18 04:54:08;;;;;;;0.57;0.57;;;;;;;;;;5099696;28;20221;-61
2022/11/18 04:56:39;;;;;;;1.03;0.40;;;;;;;;;;5097624;28;20266;-61
2022/11/18 04:59:16;;;;;;;1.27;0.37;;;;;;;;;;5098343;28;20221;-61
2022/11/18 05:01:46;;;;;;;1.10;0.40;;;;;;;;;;5099528;28;20226;-61
2022/11/18 05:04:14;;;;;;;0.97;0.30;;;;;;;;;;5096562;28;20731;-61
2022/11/18 05:06:44;;;;;;;1.50;0.40;;;;;;;;;;5098879;28;20204;-61
2022/11/18 05:09:12;;;;;;;0.43;0.40;;;;;;;;;;5096128;28;20221;-61
2022/11/18 05:14:30;;;;;;;2.13;0.27;;;;;;;;;;5097317;28;20225;-61
2022/11/18 05:16:59;;;;;;;2.00;0.50;;;;;;;;;;5099285;28;20668;-61
2022/11/18 05:19:28;;;;;;;0.70;0.40;;;;;;;;;;5098588;28;20624;-61
2022/11/18 05:21:57;;;;;;;0.87;0.50;;;;;;;;;;5099709;28;20208;-62
2022/11/18 05:24:25;;;;;;;0.33;0.33;;;;;;;;;;5096681;28;20220;-62
2022/11/18 05:26:54;;;;;;;0.73;0.50;;;;;;;;;;5096623;28;20572;-62
2022/11/18 05:29:23;;;;;;;1.60;0.40;;;;;;;;;;5098399;28;20201;-62
2022/11/18 05:31:51;;;;;;;0.50;0.50;;;;;;;;;;5099625;28;20217;-61
2022/11/18 05:34:19;;;;;;;1.23;0.50;;;;;;;;;;5093089;28;20218;-61
2022/11/18 05:36:47;;;;;;;0.73;0.67;;;;;;;;;;5098278;28;20204;-61
2022/11/18 05:39:16;;;;;;;0.50;0.50;;;;;;;;;;5098154;28;20232;-61
2022/11/18 05:44:32;;;;;;;2.03;0.70;;;;;;;;;;5089012;28;20247;-61
2022/11/18 05:47:00;;;;;;;0.57;0.57;;;;;;;;;;5099446;28;20284;-61
2022/11/18 05:49:28;;;;;;;0.57;0.57;;;;;;;;;;5098973;28;20561;-62
2022/11/18 05:51:56;;;;;;;0.40;0.40;;;;;;;;;;5099593;28;20213;-62
2022/11/18 05:54:26;;;;;;;2.00;0.57;;;;;;;;;;5099457;28;20232;-60
2022/11/18 05:56:54;;;;;;;0.50;0.50;;;;;;;;;;5098299;28;20680;-63
2022/11/18 05:59:22;;;;;;;0.83;0.47;;;;;;;;;;5099028;28;20332;-61
2022/11/18 06:01:52;;;;;;;1.47;0.53;;;;;;;;;;5099572;28;20205;-61
2022/11/18 06:04:22;;;;;;;3.10;0.53;;;;;;;;;;5098974;28;20693;-61
2022/11/18 06:06:51;;;;;;;4.20;0.60;;;;;;;;;;5099297;28;20217;-61
2022/11/18 06:09:20;;;;;;;4.77;0.80;;;;;;;;;;5095920;28;20243;-60
2022/11/18 06:11:52;;;;;;;2.43;0.50;;;;;;;;;;5098001;28;20197;-62
2022/11/18 06:14:21;;;;;;;1.10;0.50;;;;;;;;;;5098301;28;20225;-61
2022/11/18 06:16:51;;;;;;;3.00;0.90;;;;;;;;;;5098584;28;20201;-61
2022/11/18 06:19:19;;;;;;;2.70;0.80;;;;;;;;;;5098590;28;20233;-62
2022/11/18 06:21:48;;;;;;;1.90;1.03;;;;;;;;;;5098684;28;20205;-61
2022/11/18 06:24:16;;;;;;;4.20;1.13;;;;;;;;;;5098139;28;20236;-61
2022/11/18 06:26:44;;;;;;;0.57;0.50;;;;;;;;;;5098677;28;20209;-62
2022/11/18 06:29:15;;;;;;;5.57;0.80;;;;;;;;;;5098789;28;20205;-61
2022/11/18 06:31:48;;;;;;;2.63;0.97;;;;;;;;;;5098751;28;20205;-62
2022/11/18 06:34:16;;;;;;;0.97;0.50;;;;;;;;;;5098391;28;20229;-62
2022/11/18 06:36:44;;;;;;;3.53;1.20;;;;;;;;;;5098411;28;20565;-61
2022/11/18 06:39:12;;;;;;;3.43;0.97;;;;;;;;;;5098448;28;20229;-62
2022/11/18 06:41:40;;;;;;;4.20;0.70;;;;;;;;;;5098497;28;20212;-61
2022/11/18 06:44:07;;;;;;;2.80;0.50;;;;;;;;;;5097954;28;20228;-61
2022/11/18 06:49:24;;;;;;;2.90;0.80;;;;;;;;;;5094360;28;20590;-60
2022/11/18 06:51:52;;;;;;;3.40;0.97;;;;;;;;;;5098555;28;20210;-62
2022/11/18 06:54:20;;;;;;;2.23;0.70;;;;;;;;;;5097680;28;20225;-61
2022/11/18 06:56:48;;;;;;;2.27;0.73;;;;;;;;;;5098240;28;20243;-61
2022/11/18 06:59:22;;;;;;;2.90;1.10;;;;;;;;;;5097957;28;20229;-61
2022/11/18 07:01:52;;;;;;;0.97;0.87;;;;;;;;;;5098503;28;20220;-61
2022/11/18 07:04:20;;;;;;;4.20;2.20;;;;;;;;;;5097729;28;20225;-62
2022/11/18 07:06:48;;;;;;;1.20;0.63;;;;;;;;;;5097999;28;20209;-62
2022/11/18 07:09:16;;;;;;;2.17;0.90;;;;;;;;;;5098221;28;20205;-61
2022/11/18 07:11:45;;;;;;;0.80;0.67;;;;;;;;;;5097758;28;20213;-62
2022/11/18 07:14:13;;;;;;;1.20;0.60;;;;;;;;;;5097830;28;20535;-62
2022/11/18 07:16:41;;;;;;;2.00;0.80;;;;;;;;;;5097489;28;20292;-62
2022/11/18 07:19:11;;;;;;;2.30;1.00;;;;;;;;;;5097546;28;20257;-62
2022/11/18 07:21:40;;;;;;;2.20;0.90;;;;;;;;;;5097810;28;20660;-62
2022/11/18 07:24:08;;;;;;;4.33;0.93;;;;;;;;;;5097004;28;20225;-61
2022/11/18 07:26:37;;;;;;;0.60;0.60;;;;;;;;;;5097993;28;20201;-62
2022/11/18 07:29:04;;;;;;;2.07;0.80;;;;;;;;;;5097666;28;20201;-61
2022/11/18 07:31:34;;;;;;;4.07;1.10;;;;;;;;;;5097863;28;20262;-60
2022/11/18 07:34:02;;;;;;;3.40;1.10;;;;;;;;;;5097459;28;20278;-62
2022/11/18 07:36:31;;;;;;;1.80;0.87;;;;;;;;;;5097874;28;20212;-61
2022/11/18 07:39:03;;;;;;;2.77;0.77;;;;;;;;;;5097950;28;20238;-60
2022/11/18 07:41:32;;;;;;;1.73;0.80;;;;;;;;;;5097536;28;20205;-62
2022/11/18 07:44:00;;;;;;;3.70;0.90;;;;;;;;;;5098283;28;20308;-61
2022/11/18 07:46:29;;;;;;;2.03;0.67;;;;;;;;;;5098755;28;20213;-60
2022/11/18 07:48:58;;;;;;;1.63;0.80;;;;;;;;;;5096707;28;20212;-60
2022/11/18 07:51:27;;;;;;;2.10;0.83;;;;;;;;;;5097300;28;20205;-62
2022/11/18 07:53:57;;;;;;;0.97;0.80;;;;;;;;;;5097407;28;20248;-62
2022/11/18 07:56:25;;;;;;;1.87;0.60;;;;;;;;;;5097287;28;20213;-62
2022/11/18 07:58:53;;;;;;;3.40;1.20;;;;;;;;;;5097653;28;20201;-62
2022/11/18 08:01:22;;;;;;;3.93;0.83;;;;;;;;;;5097700;28;20233;-62
2022/11/18 08:03:50;;;;;;;2.57;0.60;;;;;;;;;;5097092;28;20752;-62
2022/11/18 08:06:19;;;;;;;1.80;1.07;;;;;;;;;;5097479;28;20202;-62
2022/11/18 08:08:47;;;;;;;1.97;0.80;;;;;;;;;;5099567;28;20206;-62
2022/11/18 08:11:18;;;;;;;5.40;1.00;;;;;;;;;;5101714;28;20216;-62
2022/11/18 08:13:49;;;;;;;2.73;0.80;;;;;;;;;;5101038;28;20630;-62
2022/11/18 08:16:18;;;;;;;3.97;1.20;;;;;;;;;;5101091;28;20309;-62
2022/11/18 08:18:46;;;;;;;3.57;1.20;;;;;;;;;;5088707;28;20198;-62
2022/11/18 08:21:14;;;;;;;1.97;0.90;;;;;;;;;;5100998;28;20266;-62
2022/11/18 08:23:42;;;;;;;4.40;0.73;;;;;;;;;;5101031;28;20251;-62
2022/11/18 08:26:12;;;;;;;2.57;1.30;;;;;;;;;;5100861;28;20215;-62
2022/11/18 08:28:41;;;;;;;4.17;1.20;;;;;;;;;;5101163;28;20209;-62
2022/11/18 08:31:10;;;;;;;1.20;0.70;;;;;;;;;;5101118;28;20206;-62
2022/11/18 08:33:38;;;;;;;2.87;0.80;;;;;;;;;;5100723;28;20226;-61
2022/11/18 08:36:07;;;;;;;4.37;1.27;;;;;;;;;;5101048;28;20201;-62
2022/11/18 08:38:36;;;;;;;2.37;1.03;;;;;;;;;;5101112;28;20216;-62
2022/11/18 08:41:06;;;;;;;1.90;0.93;;;;;;;;;;5100592;28;20225;-62
2022/11/18 08:43:34;;;;;;;4.10;0.80;;;;;;;;;;5100498;28;20634;-62
2022/11/18 08:46:04;;;;;;;3.10;1.20;;;;;;;;;;5100652;28;20227;-62
2022/11/18 08:48:32;;;;;;;5.33;1.23;;;;;;;;;;5099759;28;20202;-61
2022/11/18 08:51:00;;;;;;;3.70;1.10;;;;;;;;;;5100648;28;20202;-62
2022/11/18 08:53:28;;;;;;;5.47;0.90;;;;;;;;;;5100292;28;20649;-62
2022/11/18 08:55:57;;;;;;;3.60;0.87;;;;;;;;;;5100440;28;20210;-62
2022/11/18 08:58:25;;;;;;;2.90;0.93;;;;;;;;;;5100217;28;20238;-62
2022/11/18 09:00:53;;;;;;;3.17;1.10;;;;;;;;;;5100026;28;20592;-62
2022/11/18 09:03:22;;;;;;;2.40;1.30;;;;;;;;;;5099843;28;20691;-62
2022/11/18 09:05:50;;;;;;;3.00;1.10;;;;;;;;;;5100595;28;20220;-62
2022/11/18 09:08:18;;;;;;;5.60;0.97;;;;;;;;;;5100584;28;20293;-61
2022/11/18 09:10:46;;;;;;;6.13;2.23;;;;;;;;;;5100414;28;20201;-61
2022/11/18 09:13:14;;;;;;;2.83;0.90;;;;;;;;;;5099885;28;20669;-61
2022/11/18 09:16:02;;;;;;;6.33;0.90;;;;;;;;;;5099922;28;20610;-61
2022/11/18 09:18:32;;;;;;;1.13;0.73;;;;;;;;;;5099221;28;20219;-61
2022/11/18 09:21:01;;;;;;;2.20;1.20;;;;;;;;;;5098888;28;20226;-62
2022/11/18 09:23:29;;;;;;;3.67;1.43;;;;;;;;;;5100048;28;20226;-62
2022/11/18 09:25:57;;;;;;;2.40;1.10;;;;;;;;;;5099813;28;20202;-62
2022/11/18 09:28:25;;;;;;;3.33;1.70;;;;;;;;;;5099707;28;20213;-62
2022/11/18 09:30:53;;;;;;;2.57;1.77;;;;;;;;;;5094093;28;20201;-62
2022/11/18 09:33:21;;;;;;;3.27;1.17;;;;;;;;;;5095188;28;20194;-62
2022/11/18 09:35:51;;;;;;;4.27;1.73;;;;;;;;;;5096654;28;20561;-62
2022/11/18 09:38:18;;;;;;;2.10;1.67;;;;;;;;;;5099449;28;20205;-62
2022/11/18 09:40:51;;;;;;;5.70;1.70;;;;;;;;;;5099654;28;20224;-62
2022/11/18 09:43:20;;;;;;;2.00;1.50;;;;;;;;;;5099579;28;20206;-62
2022/11/18 09:45:52;;;;;;;3.13;1.30;;;;;;;;;;5099659;28;20214;-62
2022/11/18 09:49:11;;;;;;;5.40;1.20;;;;;;;;;;5099287;28;20201;-62
2022/11/18 09:51:11;;;;;;;1.70;1.07;;;;;;;;;;5099326;28;20202;-63
2022/11/18 09:53:41;;;;;;;3.23;1.47;;;;;;;;;;5099042;28;20592;-63
2022/11/18 09:56:13;;;;;;;3.30;1.10;;;;;;;;;;5099200;28;20216;-61
2022/11/18 09:58:42;;;;;;;2.67;1.17;;;;;;;;;;5099314;28;20206;-61
2022/11/18 10:01:11;;;;;;;2.77;1.17;;;;;;;;;;5099036;28;20229;-61
2022/11/18 10:03:40;;;;;;;1.93;0.90;;;;;;;;;;5098669;28;20229;-61
2022/11/18 10:06:17;;;;;;;3.43;1.13;;;;;;;;;;5098514;28;20212;-62
2022/11/18 10:08:58;;;;;;;3.83;1.00;;;;;;;;;;5098582;28;20229;-61
2022/11/18 10:11:28;;;;;;;1.27;0.93;;;;;;;;;;5098850;28;20205;-62
2022/11/18 10:14:05;;;;;;;1.30;1.00;;;;;;;;;;5098642;28;20222;-61
2022/11/18 10:16:42;;;;;;;5.23;1.40;;;;;;;;;;5099014;28;20205;-62
2022/11/18 10:19:15;;;;;;;4.90;1.10;;;;;;;;;;5098673;28;20679;-62
2022/11/18 10:21:48;;;;;;;2.27;1.10;;;;;;;;;;5097198;28;20221;-63
2022/11/18 10:24:18;;;;;;;4.73;1.30;;;;;;;;;;5098057;28;20229;-62
2022/11/18 10:26:47;;;;;;;1.57;1.30;;;;;;;;;;5098643;28;20280;-63
2022/11/18 10:29:15;;;;;;;4.10;1.10;;;;;;;;;;5098363;28;20601;-60
2022/11/18 10:31:54;;;;;;;3.33;1.40;;;;;;;;;;5098137;28;20201;-61
2022/11/18 10:34:29;;;;;;;3.63;1.40;;;;;;;;;;5098107;28;20275;-61
2022/11/18 10:37:00;;;;;;;3.77;1.30;;;;;;;;;;5098322;28;20292;-61
2022/11/18 10:39:28;;;;;;;1.53;0.97;;;;;;;;;;5098528;28;20209;-62
2022/11/18 10:41:59;;;;;;;3.03;1.10;;;;;;;;;;5098349;28;20233;-61
2022/11/18 10:44:30;;;;;;;2.57;0.80;;;;;;;;;;5098259;28;20255;-61
2022/11/18 10:47:19;;;;;;;1.73;0.70;;;;;;;;;;5098463;28;20206;-61
2022/11/18 10:49:47;;;;;;;1.87;1.10;;;;;;;;;;5093084;28;20201;-61
2022/11/18 10:52:16;;;;;;;4.27;0.90;;;;;;;;;;5096775;28;20204;-62
2022/11/18 10:54:45;;;;;;;1.30;0.77;;;;;;;;;;5097741;28;20731;-61
2022/11/18 10:57:18;;;;;;;1.93;1.00;;;;;;;;;;5097542;28;20260;-62
2022/11/18 10:59:47;;;;;;;2.77;1.00;;;;;;;;;;5098061;28;20206;-63
2022/11/18 11:02:17;;;;;;;3.73;1.30;;;;;;;;;;5097746;28;20708;-62
2022/11/18 11:04:45;;;;;;;4.20;1.30;;;;;;;;;;5097515;28;20233;-61
2022/11/18 11:07:23;;;;;;;2.30;0.87;;;;;;;;;;5098070;28;20288;-62
2022/11/18 11:10:02;;;;;;;0.73;0.70;;;;;;;;;;5098202;28;20245;-61
2022/11/18 11:12:32;;;;;;;1.27;1.07;;;;;;;;;;5097807;28;20284;-61
2022/11/18 11:15:01;;;;;;;1.57;0.70;;;;;;;;;;5097481;28;20307;-62
2022/11/18 11:17:31;;;;;;;2.30;0.70;;;;;;;;;;5096999;28;20224;-62
2022/11/18 11:20:03;;;;;;;2.73;0.70;;;;;;;;;;5097554;28;20216;-63
2022/11/18 11:22:33;;;;;;;1.23;0.90;;;;;;;;;;5097585;28;20225;-63
2022/11/18 11:25:01;;;;;;;1.80;0.80;;;;;;;;;;5097883;28;20228;-63
2022/11/18 11:27:36;;;;;;;1.30;0.73;;;;;;;;;;5097665;28;20330;-62
2022/11/18 11:30:24;;;;;;;2.47;0.77;;;;;;;;;;5097547;28;20212;-62
2022/11/18 11:33:04;;;;;;;3.37;1.00;;;;;;;;;;5097471;28;20209;-63
2022/11/18 11:35:34;;;;;;;3.37;0.83;;;;;;;;;;5097355;28;20292;-63
2022/11/18 11:38:11;;;;;;;4.00;0.90;;;;;;;;;;5097443;28;20887;-62
2022/11/18 11:40:39;;;;;;;2.60;1.00;;;;;;;;;;5097679;28;20216;-62
2022/11/18 11:43:21;;;;;;;2.20;1.20;;;;;;;;;;5098222;28;20251;-62
2022/11/18 11:45:58;;;;;;;6.63;1.23;;;;;;;;;;5100909;28;20197;-60
2022/11/18 11:48:32;;;;;;;4.43;1.00;;;;;;;;;;5100389;28;20212;-62
2022/11/18 11:51:02;;;;;;;2.17;1.00;;;;;;;;;;5102109;28;20205;-60
2022/11/18 11:53:49;;;;;;;3.97;0.80;;;;;;;;;;5101394;28;20225;-59
2022/11/18 11:56:20;;;;;;;1.70;0.70;;;;;;;;;;5100612;28;20228;-62
2022/11/18 11:59:04;;;;;;;2.83;0.87;;;;;;;;;;5100822;28;20220;-59
2022/11/18 12:01:37;;;;;;;2.13;0.70;;;;;;;;;;5099268;28;20231;-60
2022/11/18 12:04:14;;;;;;;2.57;0.70;;;;;;;;;;5101146;28;20305;-60
2022/11/18 12:06:44;;;;;;;0.80;0.80;;;;;;;;;;5101328;28;20223;-60
2022/11/18 12:09:18;;;;;;;1.83;1.50;;;;;;;;;;5098500;28;20233;-62
2022/11/18 12:11:51;;;;;;;1.20;1.10;;;;;;;;;;5099420;28;20259;-61
2022/11/18 12:14:24;;;;;;;1.00;0.70;;;;;;;;;;5096999;28;20716;-62
2022/11/18 12:16:56;;;;;;;2.43;1.03;;;;;;;;;;5099550;28;20536;-62
2022/11/18 12:19:24;;;;;;;3.10;0.90;;;;;;;;;;5097633;28;20193;-63
2022/11/18 12:21:53;;;;;;;2.50;0.90;;;;;;;;;;5099632;28;20433;-60
2022/11/18 12:24:29;;;;;;;3.50;1.03;;;;;;;;;;5097666;28;20225;-62
2022/11/18 12:26:58;;;;;;;3.17;1.00;;;;;;;;;;5096424;28;20201;-61
2022/11/18 12:29:27;;;;;;;1.30;1.20;;;;;;;;;;5099374;28;20216;-61
2022/11/18 12:31:57;;;;;;;1.83;1.50;;;;;;;;;;5099970;28;20247;-61
2022/11/18 12:34:29;;;;;;;0.70;0.70;;;;;;;;;;5101660;28;20222;-61
2022/11/18 12:36:57;;;;;;;4.00;0.93;;;;;;;;;;5102064;28;20205;-60
2022/11/18 12:39:49;;;;;;;3.60;1.10;;;;;;;;;;5100880;28;20206;-61
2022/11/18 12:45:38;;;;;;;2.93;1.00;;;;;;;;;;5100399;28;20228;-61
2022/11/18 12:48:26;;;;;;;0.87;0.87;;;;;;;;;;5100390;28;20206;-61
2022/11/18 12:50:55;;;;;;;2.33;1.20;;;;;;;;;;5100462;28;20665;-60
2022/11/18 12:53:40;;;;;;;5.53;1.43;;;;;;;;;;5100311;28;20231;-61
2022/11/18 12:56:20;;;;;;;3.03;1.10;;;;;;;;;;5100004;28;20679;-62
2022/11/18 12:58:49;;;;;;;1.77;1.10;;;;;;;;;;5095978;28;20668;-63
2022/11/18 13:01:18;;;;;;;3.73;1.03;;;;;;;;;;5100350;28;20213;-61
2022/11/18 13:03:46;;;;;;;3.07;1.10;;;;;;;;;;5099792;28;20268;-61
2022/11/18 13:06:25;;;;;;;4.50;1.23;;;;;;;;;;5100222;28;20269;-62
2022/11/18 13:08:54;;;;;;;6.07;1.17;;;;;;;;;;5100281;28;20201;-62
2022/11/18 13:19:54;;;;;;;1.27;1.17;;;;;;;;;;5099794;28;20211;-63
2022/11/18 13:25:22;;;;;;;1.00;0.80;;;;;;;;;;5098105;28;20225;-63
2022/11/18 13:27:56;;;;;;;2.00;1.03;;;;;;;;;;5099854;28;20209;-65
2022/11/18 13:30:24;;;;;;;2.70;0.93;;;;;;;;;;5100208;28;20205;-63
2022/11/18 13:32:53;;;;;;;1.37;0.90;;;;;;;;;;5099123;28;20225;-63
2022/11/18 13:35:23;;;;;;;1.70;1.00;;;;;;;;;;5098180;28;20221;-63
2022/11/18 13:37:52;;;;;;;1.27;0.83;;;;;;;;;;5098342;28;20209;-63
2022/11/18 13:40:21;;;;;;;3.73;0.93;;;;;;;;;;5098403;28;20201;-63
2022/11/18 13:42:50;;;;;;;1.30;0.90;;;;;;;;;;5096448;28;20224;-63
2022/11/18 13:45:20;;;;;;;1.87;0.90;;;;;;;;;;5098404;28;20312;-63
2022/11/18 13:47:50;;;;;;;3.97;1.20;;;;;;;;;;5096454;28;20212;-63
2022/11/18 13:50:22;;;;;;;2.20;0.90;;;;;;;;;;5098004;28;20204;-63
2022/11/18 13:52:57;;;;;;;1.30;0.80;;;;;;;;;;5097956;28;20648;-63
2022/11/18 13:55:27;;;;;;;3.00;1.30;;;;;;;;;;5097808;28;20580;-63
2022/11/18 13:58:01;;;;;;;1.30;0.97;;;;;;;;;;5096550;28;20240;-63
2022/11/18 14:00:32;;;;;;;1.03;0.70;;;;;;;;;;5095692;28;20204;-63
2022/11/18 14:03:02;;;;;;;4.20;1.20;;;;;;;;;;5097822;28;20244;-63
2022/11/18 14:05:30;;;;;;;4.57;1.60;;;;;;;;;;5095267;28;20209;-63
2022/11/18 14:08:03;;;;;;;2.20;1.43;;;;;;;;;;5097842;28;20205;-62
2022/11/18 14:10:32;;;;;;;3.93;2.80;;;;;;;;;;5097513;28;20202;-63
2022/11/18 14:13:17;;;;;;;6.47;1.97;;;;;;;;;;5098031;28;20542;-63
2022/11/18 14:15:46;;;;;;;2.83;1.37;;;;;;;;;;5098755;28;20294;-63
2022/11/18 14:18:18;;;;;;;2.27;1.43;;;;;;;;;;5097862;28;20208;-63
2022/11/18 14:20:50;;;;;;;4.23;1.90;;;;;;;;;;5098660;28;20224;-64
2022/11/18 14:23:18;;;;;;;3.33;1.90;;;;;;;;;;5096436;28;20225;-64
2022/11/18 14:25:46;;;;;;;1.63;1.50;;;;;;;;;;5098769;28;20205;-63
2022/11/18 14:28:19;;;;;;;3.90;1.23;;;;;;;;;;5098625;28;20232;-64
2022/11/18 14:30:57;;;;;;;2.20;1.27;;;;;;;;;;5098822;28;20206;-64
2022/11/18 14:33:26;;;;;;;2.83;0.83;;;;;;;;;;5098266;28;20232;-65
2022/11/18 14:35:55;;;;;;;3.70;1.20;;;;;;;;;;5098584;28;20211;-65
2022/11/18 14:38:25;;;;;;;2.23;0.90;;;;;;;;;;5098415;28;20269;-63
2022/11/18 14:41:14;;;;;;;2.33;1.20;;;;;;;;;;5098106;28;20209;-64
2022/11/18 14:43:44;;;;;;;2.07;1.87;;;;;;;;;;5097978;28;20229;-64
2022/11/18 14:46:15;;;;;;;1.60;1.30;;;;;;;;;;5097557;28;20206;-64
2022/11/18 14:48:43;;;;;;;2.10;1.00;;;;;;;;;;5098176;28;20236;-64
2022/11/18 14:51:12;;;;;;;2.03;1.17;;;;;;;;;;5098511;28;20210;-64
2022/11/18 14:53:40;;;;;;;1.93;0.90;;;;;;;;;;5098341;28;20232;-64
2022/11/18 14:56:12;;;;;;;1.57;1.37;;;;;;;;;;5094571;28;20221;-65
2022/11/18 14:58:40;;;;;;;2.13;1.13;;;;;;;;;;5098118;28;20194;-64
2022/11/18 15:01:09;;;;;;;6.73;3.00;;;;;;;;;;5098152;28;20205;-64
2022/11/18 15:03:39;;;;;;;4.00;1.13;;;;;;;;;;5097408;28;20278;-64
2022/11/18 15:06:12;;;;;;;6.90;1.03;;;;;;;;;;5097855;28;20206;-64
2022/11/18 15:08:40;;;;;;;1.27;1.00;;;;;;;;;;5097957;28;20208;-64
2022/11/18 15:11:08;;;;;;;0.93;0.90;;;;;;;;;;5097712;28;20216;-64
2022/11/18 15:13:38;;;;;;;1.43;1.20;;;;;;;;;;5097592;28;20715;-64
2022/11/18 15:16:11;;;;;;;6.50;1.70;;;;;;;;;;5097785;28;20202;-64
2022/11/18 15:18:40;;;;;;;1.20;0.80;;;;;;;;;;5095703;28;20288;-64
2022/11/18 15:21:08;;;;;;;2.87;1.07;;;;;;;;;;5097630;28;20205;-64
2022/11/18 15:23:37;;;;;;;3.23;0.83;;;;;;;;;;5097587;28;20657;-64
2022/11/18 15:26:12;;;;;;;2.50;1.00;;;;;;;;;;5098047;28;20201;-64
2022/11/18 15:28:40;;;;;;;6.17;1.40;;;;;;;;;;5097634;28;20216;-64
2022/11/18 15:31:08;;;;;;;2.33;1.00;;;;;;;;;;5097621;28;20570;-64
2022/11/18 15:33:38;;;;;;;2.43;0.93;;;;;;;;;;5097608;28;20236;-64
2022/11/18 15:36:09;;;;;;;1.57;0.83;;;;;;;;;;5097659;28;20239;-64
2022/11/18 15:38:37;;;;;;;2.37;1.00;;;;;;;;;;5098066;28;20216;-64